createdAt,value
2018-04-08T00:00:08.596Z,7.43
2018-04-08T00:02:37.256Z,9.83
2018-04-08T00:05:05.740Z,5.63
2018-04-08T00:07:34.144Z,6.63
2018-04-08T00:10:02.610Z,8.37
2018-04-08T00:12:31.112Z,42.10
2018-04-08T00:15:11.507Z,6.63
2018-04-08T00:17:39.998Z,9.77
2018-04-08T00:20:08.500Z,6.00
2018-04-08T00:22:36.979Z,11.63
2018-04-08T00:25:05.452Z,7.57
2018-04-08T00:27:33.930Z,6.03
2018-04-08T00:30:03.157Z,3.60
2018-04-08T00:32:31.616Z,6.47
2018-04-08T00:35:07.313Z,10.57
2018-04-08T00:37:35.760Z,7.37
2018-04-08T00:40:03.555Z,6.87
2018-04-08T00:42:32.827Z,8.30
2018-04-08T00:45:01.323Z,7.63
2018-04-08T00:47:29.809Z,5.33
2018-04-08T00:49:58.070Z,5.47
2018-04-08T00:52:26.557Z,5.57
2018-04-08T00:54:54.736Z,4.93
2018-04-08T00:57:23.226Z,8.70
2018-04-08T00:59:52.423Z,8.70
2018-04-08T01:02:20.879Z,6.20
2018-04-08T01:04:49.376Z,6.73
2018-04-08T01:07:17.912Z,6.70
2018-04-08T01:09:47.077Z,6.27
2018-04-08T01:12:14.848Z,4.40
2018-04-08T01:14:43.343Z,10.77
2018-04-08T01:17:11.581Z,12.80
2018-04-08T01:19:40.807Z,5.33
2018-04-08T01:22:08.739Z,8.07
2018-04-08T01:24:37.202Z,5.17
2018-04-08T01:27:05.639Z,3.07
2018-04-08T01:29:34.102Z,6.43
2018-04-08T01:32:02.285Z,4.67
2018-04-08T01:34:31.719Z,4.40
2018-04-08T01:36:59.915Z,3.60
2018-04-08T01:39:28.399Z,8.97
2018-04-08T01:41:56.520Z,8.00
2018-04-08T01:44:24.760Z,7.67
2018-04-08T01:46:53.244Z,6.67
2018-04-08T01:49:21.715Z,4.13
2018-04-08T01:51:50.224Z,5.90
2018-04-08T01:54:18.693Z,9.77
2018-04-08T01:56:47.180Z,7.50
2018-04-08T01:59:15.668Z,4.00
2018-04-08T02:01:44.692Z,5.77
2018-04-08T02:04:12.859Z,4.60
2018-04-08T02:06:41.320Z,7.13
2018-04-08T02:09:09.888Z,12.40
2018-04-08T02:11:38.359Z,10.03
2018-04-08T02:14:06.824Z,12.00
2018-04-08T02:16:35.258Z,6.00
2018-04-08T02:19:03.720Z,5.87
2018-04-08T02:21:34.220Z,9.83
2018-04-08T02:24:02.695Z,4.40
2018-04-08T02:26:31.151Z,4.20
2018-04-08T02:28:59.607Z,6.07
2018-04-08T02:31:27.872Z,4.87
2018-04-08T02:33:56.364Z,5.10
2018-04-08T02:36:24.837Z,5.07
2018-04-08T02:38:53.275Z,4.07
2018-04-08T02:41:21.707Z,7.23
2018-04-08T02:43:50.298Z,6.80
2018-04-08T02:46:18.721Z,6.60
2018-04-08T02:48:47.915Z,6.67
2018-04-08T02:51:17.371Z,9.03
2018-04-08T02:53:45.835Z,6.60
2018-04-08T02:56:14.482Z,7.67
2018-04-08T02:58:42.977Z,7.60
2018-04-08T03:01:11.396Z,12.23
2018-04-08T03:03:39.824Z,4.87
2018-04-08T03:06:08.255Z,8.73
2018-04-08T03:08:36.732Z,5.90
2018-04-08T03:11:04.871Z,7.80
2018-04-08T03:13:34.124Z,14.97
2018-04-08T03:16:02.375Z,4.70
2018-04-08T03:18:30.852Z,7.70
2018-04-08T03:20:59.280Z,6.00
2018-04-08T03:23:28.311Z,4.87
2018-04-08T03:25:56.788Z,9.47
2018-04-08T03:28:26.050Z,4.90
2018-04-08T03:30:54.495Z,4.40
2018-04-08T03:33:22.903Z,4.67
2018-04-08T03:35:51.004Z,5.80
2018-04-08T03:38:19.480Z,4.83
2018-04-08T03:40:47.937Z,6.50
2018-04-08T03:43:17.154Z,3.90
2018-04-08T03:45:46.404Z,8.90
2018-04-08T03:48:14.821Z,5.47
2018-04-08T03:50:43.256Z,4.07
2018-04-08T03:53:12.709Z,11.17
2018-04-08T03:55:41.177Z,5.20
2018-04-08T03:58:09.608Z,6.30
2018-04-08T04:00:37.801Z,10.80
2018-04-08T04:03:06.049Z,6.73
2018-04-08T04:05:34.293Z,5.67
2018-04-08T04:08:02.525Z,11.13
2018-04-08T04:10:30.795Z,9.33
2018-04-08T04:12:59.771Z,5.03
2018-04-08T04:15:28.004Z,3.50
2018-04-08T04:17:56.407Z,5.63
2018-04-08T04:23:43.039Z,6.33
2018-04-08T04:26:23.275Z,4.47
2018-04-08T04:28:51.756Z,12.10
2018-04-08T04:31:20.016Z,8.93
2018-04-08T04:33:48.469Z,10.00
2018-04-08T04:36:16.868Z,7.03
2018-04-08T04:38:45.298Z,8.10
2018-04-08T04:41:13.808Z,5.90
2018-04-08T04:43:42.243Z,7.10
2018-04-08T04:46:10.685Z,7.50
2018-04-08T04:48:39.165Z,4.07
2018-04-08T04:51:07.673Z,4.93
2018-04-08T04:53:36.122Z,7.50
2018-04-08T04:56:05.144Z,4.20
2018-04-08T04:58:34.138Z,4.77
2018-04-08T05:01:03.104Z,11.33
2018-04-08T05:03:31.304Z,5.33
2018-04-08T05:05:59.738Z,5.87
2018-04-08T05:08:28.947Z,8.33
2018-04-08T05:10:58.222Z,7.53
2018-04-08T05:13:26.682Z,5.67
2018-04-08T05:15:55.080Z,8.33
2018-04-08T05:18:23.521Z,3.80
2018-04-08T05:20:56.682Z,5.23
2018-04-08T05:23:25.140Z,5.30
2018-04-08T05:25:53.627Z,8.87
2018-04-08T05:28:22.885Z,6.00
2018-04-08T05:30:51.394Z,7.90
2018-04-08T05:33:19.900Z,6.30
2018-04-08T05:35:48.401Z,8.67
2018-04-08T05:38:16.903Z,5.30
2018-04-08T05:40:46.163Z,5.27
2018-04-08T05:43:14.640Z,5.83
2018-04-08T05:45:43.131Z,9.57
2018-04-08T05:48:11.617Z,5.80
2018-04-08T05:50:40.119Z,9.40
2018-04-08T05:53:08.665Z,6.37
2018-04-08T05:55:37.134Z,4.87
2018-04-08T05:58:05.577Z,4.87
2018-04-08T06:00:34.860Z,7.83
2018-04-08T06:03:03.327Z,4.13
2018-04-08T06:05:32.908Z,11.30
2018-04-08T06:08:02.155Z,7.83
2018-04-08T06:10:30.655Z,5.40
2018-04-08T06:12:59.124Z,5.40
2018-04-08T06:15:27.619Z,6.83
2018-04-08T06:17:56.085Z,6.13
2018-04-08T06:20:24.488Z,8.63
2018-04-08T06:22:52.998Z,12.87
2018-04-08T06:25:22.068Z,6.37
2018-04-08T06:27:50.299Z,5.47
2018-04-08T06:30:18.899Z,6.37
2018-04-08T06:32:47.506Z,3.83
2018-04-08T06:35:15.757Z,5.03
2018-04-08T06:38:05.855Z,7.00
2018-04-08T06:40:34.804Z,5.57
2018-04-08T06:43:03.001Z,12.37
2018-04-08T06:45:43.360Z,12.73
2018-04-08T06:48:11.552Z,10.53
2018-04-08T06:50:39.836Z,9.13
2018-04-08T06:53:08.238Z,6.57
2018-04-08T06:55:36.707Z,5.27
2018-04-08T06:58:05.222Z,7.30
2018-04-08T07:00:33.655Z,13.53
2018-04-08T07:03:02.101Z,7.27
2018-04-08T07:05:30.033Z,6.30
2018-04-08T07:07:58.508Z,6.70
2018-04-08T07:10:26.968Z,6.43
2018-04-08T07:12:55.467Z,4.70
2018-04-08T07:15:23.711Z,7.87
2018-04-08T07:17:52.223Z,6.23
2018-04-08T07:20:38.239Z,6.57
2018-04-08T07:23:07.487Z,6.57
2018-04-08T07:25:35.904Z,6.73
2018-04-08T07:28:04.390Z,4.10
2018-04-08T07:30:32.930Z,7.63
2018-04-08T07:33:01.384Z,9.53
2018-04-08T07:35:29.813Z,7.90
2018-04-08T07:37:58.321Z,8.33
2018-04-08T07:40:26.941Z,9.10
2018-04-08T07:43:09.252Z,8.70
2018-04-08T07:45:37.682Z,12.53
2018-04-08T07:48:14.282Z,15.50
2018-04-08T07:50:43.671Z,11.83
2018-04-08T07:53:12.175Z,17.67
2018-04-08T07:55:40.669Z,9.47
2018-04-08T07:58:09.939Z,9.73
2018-04-08T08:00:38.365Z,8.67
2018-04-08T08:03:06.847Z,8.47
2018-04-08T08:05:35.336Z,9.90
2018-04-08T08:08:03.808Z,8.40
2018-04-08T08:10:36.372Z,9.90
2018-04-08T08:13:05.643Z,10.13
2018-04-08T08:15:34.139Z,10.30
2018-04-08T08:18:02.719Z,8.83
2018-04-08T08:20:31.959Z,9.23
2018-04-08T08:23:00.213Z,9.73
2018-04-08T08:25:28.645Z,9.73
2018-04-08T08:27:57.136Z,11.50
2018-04-08T08:30:25.563Z,9.23
2018-04-08T08:32:54.114Z,9.50
2018-04-08T08:35:22.560Z,12.87
2018-04-08T08:37:51.034Z,11.67
2018-04-08T08:40:20.300Z,12.70
2018-04-08T08:42:48.781Z,8.53
2018-04-08T08:45:17.281Z,8.70
2018-04-08T08:47:45.749Z,8.13
2018-04-08T08:50:14.210Z,9.57
2018-04-08T08:52:42.704Z,9.97
2018-04-08T08:55:12.733Z,10.33
2018-04-08T08:57:44.130Z,13.20
2018-04-08T09:00:12.629Z,13.43
2018-04-08T09:02:41.123Z,10.73
2018-04-08T09:05:09.418Z,11.97
2018-04-08T09:07:38.039Z,12.70
2018-04-08T09:10:54.051Z,8.97
2018-04-08T09:13:22.617Z,7.87
2018-04-08T09:15:51.130Z,7.90
2018-04-08T09:18:19.421Z,8.27
2018-04-08T09:20:52.038Z,12.17
2018-04-08T09:23:26.009Z,9.23
2018-04-08T09:25:54.827Z,10.20
2018-04-08T09:28:23.349Z,9.97
2018-04-08T09:30:51.890Z,6.67
2018-04-08T09:33:20.177Z,8.13
2018-04-08T09:35:48.698Z,5.30
2018-04-08T09:38:17.202Z,6.07
2018-04-08T09:40:45.682Z,8.10
2018-04-08T09:43:14.206Z,8.70
2018-04-08T09:45:42.717Z,11.20
2018-04-08T09:48:11.314Z,8.50
2018-04-08T09:50:39.932Z,9.80
2018-04-08T09:53:08.451Z,10.07
2018-04-08T09:55:36.725Z,8.40
2018-04-08T09:58:10.627Z,6.60
2018-04-08T10:00:40.135Z,6.87
2018-04-08T10:06:16.977Z,5.90
2018-04-08T10:08:46.947Z,9.00
2018-04-08T10:11:15.518Z,4.30
2018-04-08T10:13:44.018Z,5.43
2018-04-08T10:16:12.433Z,7.30
2018-04-08T10:18:52.273Z,10.43
2018-04-08T10:21:21.639Z,7.90
2018-04-08T10:23:49.892Z,9.37
2018-04-08T10:26:18.375Z,7.60
2018-04-08T10:28:46.906Z,6.93
2018-04-08T10:31:15.364Z,7.20
2018-04-08T10:33:44.611Z,4.63
2018-04-08T10:36:13.144Z,7.70
2018-04-08T10:38:41.619Z,5.57
2018-04-08T10:41:10.915Z,7.40
2018-04-08T10:43:40.900Z,7.50
2018-04-08T10:46:09.900Z,12.77
2018-04-08T10:48:38.382Z,16.13
2018-04-08T10:51:06.624Z,9.27
2018-04-08T10:53:35.113Z,6.37
2018-04-08T10:56:03.617Z,7.90
2018-04-08T10:58:33.183Z,4.57
2018-04-08T11:01:01.634Z,5.60
2018-04-08T11:03:31.356Z,5.80
2018-04-08T11:06:00.027Z,8.03
2018-04-08T11:08:29.556Z,6.70
2018-04-08T11:10:58.057Z,7.40
2018-04-08T11:13:26.364Z,5.87
2018-04-08T11:15:54.840Z,5.60
2018-04-08T11:18:28.689Z,9.07
2018-04-08T11:21:18.867Z,4.97
2018-04-08T11:23:47.373Z,4.83
2018-04-08T11:26:15.883Z,6.90
2018-04-08T11:28:45.171Z,4.10
2018-04-08T11:31:14.248Z,5.80
2018-04-08T11:33:42.782Z,11.80
2018-04-08T11:36:11.294Z,8.13
2018-04-08T11:38:40.593Z,6.63
2018-04-08T11:41:14.282Z,5.33
2018-04-08T11:43:42.964Z,9.30
2018-04-08T11:46:13.479Z,3.80
2018-04-08T11:48:43.267Z,5.80
2018-04-08T11:51:11.858Z,7.93
2018-04-08T11:53:44.747Z,8.00
2018-04-08T11:56:13.259Z,6.43
2018-04-08T11:58:41.699Z,5.47
2018-04-08T12:01:10.012Z,5.57
2018-04-08T12:03:38.358Z,5.33
2018-04-08T12:06:06.920Z,5.83
2018-04-08T12:08:35.465Z,4.60
2018-04-08T12:11:04.869Z,5.37
2018-04-08T12:13:33.204Z,4.77
2018-04-08T12:16:01.748Z,6.80
2018-04-08T12:18:30.102Z,9.80
2018-04-08T12:20:58.893Z,4.90
2018-04-08T12:23:27.175Z,15.37
2018-04-08T12:25:56.432Z,8.80
2018-04-08T12:28:24.848Z,9.60
2018-04-08T12:30:53.146Z,6.40
2018-04-08T12:33:22.522Z,8.63
2018-04-08T12:35:51.324Z,10.57
2018-04-08T12:38:19.985Z,9.90
2018-04-08T12:40:48.640Z,12.20
2018-04-08T12:43:17.192Z,11.00
2018-04-08T12:45:45.762Z,11.90
2018-04-08T12:48:15.680Z,15.30
2018-04-08T12:50:44.105Z,9.83
2018-04-08T12:53:12.351Z,10.47
2018-04-08T12:55:40.879Z,9.43
2018-04-08T12:58:09.393Z,8.53
2018-04-08T13:06:09.206Z,14.67
2018-04-08T13:08:38.541Z,15.70
2018-04-08T13:11:07.063Z,18.33
2018-04-08T13:13:35.631Z,16.67
2018-04-08T13:16:03.607Z,12.40
2018-04-08T13:18:32.692Z,12.17
2018-04-08T13:21:01.817Z,14.23
2018-04-08T13:23:31.651Z,17.07
2018-04-08T13:26:02.120Z,13.90
2018-04-08T13:28:30.629Z,20.53
2018-04-08T13:30:59.176Z,17.53
2018-04-08T13:33:28.492Z,15.80
2018-04-08T13:35:57.887Z,12.57
2018-04-08T13:38:26.577Z,15.77
2018-04-08T13:41:02.462Z,20.53
2018-04-08T13:46:04.315Z,14.00
2018-04-08T13:48:33.225Z,12.90
2018-04-08T13:51:02.584Z,14.73
2018-04-08T13:53:40.202Z,14.90
2018-04-08T13:56:08.787Z,10.50
2018-04-08T13:58:37.328Z,10.73
2018-04-08T14:01:05.874Z,7.90
2018-04-08T14:03:35.402Z,5.97
2018-04-08T14:09:03.623Z,6.17
2018-04-08T14:11:32.145Z,9.20
2018-04-08T14:14:25.145Z,6.97
2018-04-08T14:16:53.664Z,7.37
2018-04-08T14:19:22.248Z,7.83
2018-04-08T14:21:51.719Z,8.70
2018-04-08T14:24:21.074Z,8.70
2018-04-08T14:26:49.585Z,11.60
2018-04-08T14:29:18.951Z,11.33
2018-04-08T14:31:47.475Z,18.03
2018-04-08T14:34:15.971Z,10.60
2018-04-08T14:36:44.313Z,14.30
2018-04-08T14:39:13.922Z,9.83
2018-04-08T14:41:49.405Z,18.00
2018-04-08T14:44:18.076Z,13.10
2018-04-08T14:46:47.448Z,10.13
2018-04-08T14:49:16.085Z,15.13
2018-04-08T14:51:46.513Z,7.83
2018-04-08T14:57:13.352Z,11.80
2018-04-08T14:59:41.627Z,14.03
2018-04-08T15:02:10.468Z,8.07
2018-04-08T15:04:38.785Z,14.90
2018-04-08T15:07:07.492Z,11.20
2018-04-08T15:09:35.811Z,16.90
2018-04-08T15:12:04.142Z,7.67
2018-04-08T15:14:38.961Z,11.60
2018-04-08T15:17:23.980Z,13.03
2018-04-08T15:19:52.638Z,11.00
2018-04-08T15:22:20.975Z,18.60
2018-04-08T15:25:02.322Z,8.03
2018-04-08T15:27:30.833Z,11.00
2018-04-08T15:29:59.432Z,7.83
2018-04-08T15:32:28.291Z,11.13
2018-04-08T15:34:56.817Z,8.10
2018-04-08T15:37:25.196Z,9.10
2018-04-08T15:39:53.938Z,13.63
2018-04-08T15:42:22.223Z,13.23
2018-04-08T15:45:04.885Z,9.93
2018-04-08T15:47:45.287Z,8.53
2018-04-08T15:50:35.109Z,9.80
2018-04-08T15:55:42.501Z,9.27
2018-04-08T15:58:11.115Z,8.80
2018-04-08T16:00:59.228Z,9.23
2018-04-08T16:03:27.698Z,7.53
2018-04-08T16:05:56.259Z,10.30
2018-04-08T16:13:52.622Z,9.57
2018-04-08T16:16:21.719Z,10.37
2018-04-08T16:18:50.370Z,7.63
2018-04-08T16:21:22.540Z,16.27
2018-04-08T16:23:51.096Z,9.37
2018-04-08T16:26:19.600Z,6.67
2018-04-08T16:28:48.456Z,9.77
2018-04-08T16:34:09.386Z,5.80
2018-04-08T16:39:35.093Z,10.70
2018-04-08T16:42:04.635Z,8.60
2018-04-08T16:44:33.228Z,7.70
2018-04-08T16:47:02.634Z,7.13
2018-04-08T16:52:41.112Z,10.00
2018-04-08T16:55:10.308Z,10.27
2018-04-08T16:57:40.041Z,6.20
2018-04-08T17:03:15.870Z,10.97
2018-04-08T17:08:37.622Z,7.77
2018-04-08T17:11:06.217Z,6.43
2018-04-08T17:13:34.945Z,9.70
2018-04-08T17:16:03.507Z,6.80
2018-04-08T17:18:32.124Z,9.43
2018-04-08T17:21:23.896Z,12.30
2018-04-08T17:23:52.207Z,12.60
2018-04-08T17:29:18.683Z,10.03
2018-04-08T17:31:47.308Z,11.10
2018-04-08T17:34:16.399Z,8.90
2018-04-08T17:39:48.348Z,5.00
2018-04-08T17:42:16.829Z,6.33
2018-04-08T17:48:08.849Z,8.53
2018-04-08T17:50:37.341Z,13.93
2018-04-08T17:53:06.510Z,10.07
2018-04-08T17:58:29.051Z,8.23
2018-04-08T18:01:04.411Z,9.30
2018-04-08T18:03:33.567Z,8.53
2018-04-08T18:06:06.289Z,8.30
2018-04-08T18:08:34.838Z,8.90
2018-04-08T18:11:03.420Z,7.53
2018-04-08T18:13:31.875Z,8.10
2018-04-08T18:16:00.335Z,6.90
2018-04-08T18:18:28.758Z,10.37
2018-04-08T18:20:58.359Z,12.23
2018-04-08T18:23:27.783Z,10.80
2018-04-08T18:26:02.563Z,8.60
2018-04-08T18:28:31.137Z,16.03
2018-04-08T18:30:59.671Z,8.40
2018-04-08T18:33:28.358Z,12.90
2018-04-08T18:35:57.061Z,7.53
2018-04-08T18:38:25.988Z,14.00
2018-04-08T18:40:54.580Z,16.20
2018-04-08T18:43:23.104Z,12.60
2018-04-08T18:45:51.678Z,10.87
2018-04-08T18:48:20.216Z,15.20
2018-04-08T18:53:57.567Z,9.63
2018-04-08T18:56:50.355Z,8.07
2018-04-08T19:01:55.012Z,11.07
2018-04-08T19:04:23.559Z,8.60
2018-04-08T19:06:52.075Z,12.97
2018-04-08T19:15:27.828Z,7.20
2018-04-08T19:18:01.873Z,15.87
2018-04-08T19:20:45.310Z,10.40
2018-04-08T19:23:25.758Z,9.83
2018-04-08T19:25:55.920Z,16.50
2018-04-08T19:28:24.480Z,13.77
2018-04-08T19:30:53.007Z,17.20
2018-04-08T19:33:23.686Z,10.50
2018-04-08T19:35:52.277Z,12.10
2018-04-08T19:38:45.040Z,13.27
2018-04-08T19:41:14.004Z,16.00
2018-04-08T19:43:51.586Z,18.10
2018-04-08T19:46:20.966Z,15.10
2018-04-08T19:48:49.857Z,11.77
2018-04-08T19:54:21.919Z,17.70
2018-04-08T19:56:50.594Z,16.70
2018-04-08T19:59:19.145Z,22.13
2018-04-08T20:01:49.256Z,13.93
2018-04-08T20:04:18.592Z,23.50
2018-04-08T20:06:51.289Z,18.07
2018-04-08T20:12:13.712Z,20.83
2018-04-08T20:14:42.303Z,18.93
2018-04-08T20:17:19.563Z,16.70
2018-04-08T20:19:48.717Z,23.13
2018-04-08T20:22:20.973Z,23.60
2018-04-08T20:25:18.536Z,29.03
2018-04-08T20:31:03.097Z,26.17
2018-04-08T20:33:33.688Z,28.00
2018-04-08T20:36:04.449Z,23.67
2018-04-08T20:41:37.767Z,32.70
2018-04-08T20:44:08.640Z,29.97
2018-04-08T20:46:47.762Z,27.70
2018-04-08T20:49:17.865Z,29.10
2018-04-08T20:51:47.651Z,22.10
2018-04-08T20:54:17.344Z,28.63
2018-04-08T20:56:46.228Z,30.70
2018-04-08T21:02:12.071Z,27.63
2018-04-08T21:04:41.737Z,21.43
2018-04-08T21:07:12.625Z,25.40
2018-04-08T21:09:41.597Z,22.47
2018-04-08T21:12:11.166Z,26.60
2018-04-08T21:14:50.499Z,20.70
2018-04-08T21:20:46.901Z,18.87
2018-04-08T21:23:17.655Z,22.00
2018-04-08T21:25:47.729Z,17.50
2018-04-08T21:28:17.296Z,22.50
2018-04-08T21:30:47.591Z,22.07
2018-04-08T21:33:17.306Z,24.90
2018-04-08T21:35:47.070Z,24.47
2018-04-08T21:38:25.205Z,22.17
2018-04-08T21:40:53.913Z,24.63
2018-04-08T21:43:22.243Z,27.90
2018-04-08T21:45:50.446Z,31.30
2018-04-08T21:48:19.089Z,22.97
2018-04-08T21:50:48.916Z,18.83
2018-04-08T21:53:17.760Z,21.00
2018-04-08T21:55:47.452Z,17.27
2018-04-08T22:01:17.320Z,15.73
2018-04-08T22:03:47.601Z,14.80
2018-04-08T22:06:16.332Z,18.17
2018-04-08T22:08:46.988Z,15.60
2018-04-08T22:11:17.613Z,19.70
2018-04-08T22:13:47.956Z,12.47
2018-04-08T22:16:19.552Z,14.70
2018-04-08T22:18:51.455Z,19.40
2018-04-08T22:21:19.914Z,14.00
2018-04-08T22:23:49.307Z,23.27
2018-04-08T22:26:19.381Z,17.90
2018-04-08T22:28:48.672Z,16.67
2018-04-08T22:31:18.191Z,22.37
2018-04-08T22:33:48.711Z,14.70
2018-04-08T22:36:18.321Z,14.37
2018-04-08T22:38:47.052Z,14.50
2018-04-08T22:41:16.647Z,19.20
2018-04-08T22:43:49.883Z,17.20
2018-04-08T22:46:19.576Z,14.27
2018-04-08T22:48:51.866Z,19.23
2018-04-08T22:51:20.449Z,16.83
2018-04-08T22:53:52.016Z,16.10
2018-04-08T22:56:20.869Z,15.40
2018-04-08T22:58:49.668Z,19.73
2018-04-08T23:01:19.149Z,15.33
2018-04-08T23:03:49.352Z,17.00
2018-04-08T23:06:18.861Z,20.23
2018-04-08T23:08:48.266Z,15.70
2018-04-08T23:11:17.310Z,15.37
2018-04-08T23:13:46.845Z,17.10
2018-04-08T23:16:15.565Z,22.53
2018-04-08T23:18:46.324Z,14.23
2018-04-08T23:21:15.056Z,28.27
2018-04-08T23:23:44.746Z,12.93
2018-04-08T23:26:13.963Z,18.17
2018-04-08T23:28:42.633Z,12.00
2018-04-08T23:31:14.036Z,15.30
2018-04-08T23:33:43.048Z,16.47
2018-04-08T23:36:14.610Z,16.53
2018-04-08T23:38:50.961Z,15.40
2018-04-08T23:41:19.789Z,15.63
2018-04-08T23:43:48.261Z,15.10
2018-04-08T23:46:19.745Z,16.20
2018-04-08T23:48:48.305Z,16.60
2018-04-08T23:51:17.091Z,12.57
2018-04-08T23:53:47.688Z,19.03
2018-04-08T23:56:16.475Z,16.13
2018-04-08T23:58:46.363Z,15.80
